sensor_id;sensor_type;location;lat;lon;timestamp;P1;durP1;ratioP1;P2;durP2;ratioP2
23117;SDS011;11728;50.624;6.014;2023-05-10T00:05:14;13.38;;;9.52;;
23117;SDS011;11728;50.624;6.014;2023-05-10T00:10:34;11.43;;;9.43;;
23117;SDS011;11728;50.624;6.014;2023-05-10T00:15:56;12.48;;;8.95;;
23117;SDS011;11728;50.624;6.014;2023-05-10T00:21:17;17.27;;;9.95;;
23117;SDS011;11728;50.624;6.014;2023-05-10T00:26:37;10.48;;;9.00;;
23117;SDS011;11728;50.624;6.014;2023-05-10T00:31:58;11.10;;;9.52;;
23117;SDS011;11728;50.624;6.014;2023-05-10T00:37:19;10.95;;;9.07;;
23117;SDS011;11728;50.624;6.014;2023-05-10T00:42:40;15.77;;;10.52;;
23117;SDS011;11728;50.624;6.014;2023-05-10T00:48:01;10.77;;;8.30;;
23117;SDS011;11728;50.624;6.014;2023-05-10T00:53:23;7.75;;;6.60;;
23117;SDS011;11728;50.624;6.014;2023-05-10T00:58:45;8.80;;;6.78;;
23117;SDS011;11728;50.624;6.014;2023-05-10T01:04:06;8.75;;;7.40;;
23117;SDS011;11728;50.624;6.014;2023-05-10T01:09:27;10.45;;;8.10;;
23117;SDS011;11728;50.624;6.014;2023-05-10T01:14:48;12.27;;;9.82;;
23117;SDS011;11728;50.624;6.014;2023-05-10T01:20:09;15.15;;;9.18;;
23117;SDS011;11728;50.624;6.014;2023-05-10T01:36:55;12.85;;;9.00;;
23117;SDS011;11728;50.624;6.014;2023-05-10T01:42:24;10.15;;;7.85;;
23117;SDS011;11728;50.624;6.014;2023-05-10T01:47:54;9.20;;;6.93;;
23117;SDS011;11728;50.624;6.014;2023-05-10T01:53:24;11.05;;;7.10;;
23117;SDS011;11728;50.624;6.014;2023-05-10T01:58:45;10.02;;;6.70;;
23117;SDS011;11728;50.624;6.014;2023-05-10T02:04:08;9.93;;;6.45;;
23117;SDS011;11728;50.624;6.014;2023-05-10T02:09:32;9.65;;;7.28;;
23117;SDS011;11728;50.624;6.014;2023-05-10T02:14:55;12.27;;;8.13;;
23117;SDS011;11728;50.624;6.014;2023-05-10T02:20:18;13.40;;;8.95;;
23117;SDS011;11728;50.624;6.014;2023-05-10T02:25:39;13.07;;;9.05;;
23117;SDS011;11728;50.624;6.014;2023-05-10T02:31:01;12.77;;;8.70;;
23117;SDS011;11728;50.624;6.014;2023-05-10T02:36:22;16.40;;;10.90;;
23117;SDS011;11728;50.624;6.014;2023-05-10T02:41:45;14.95;;;11.02;;
23117;SDS011;11728;50.624;6.014;2023-05-10T02:47:07;18.23;;;11.73;;
23117;SDS011;11728;50.624;6.014;2023-05-10T02:52:36;17.83;;;10.70;;
23117;SDS011;11728;50.624;6.014;2023-05-10T02:58:01;16.75;;;10.55;;
23117;SDS011;11728;50.624;6.014;2023-05-10T03:03:22;16.10;;;10.95;;
23117;SDS011;11728;50.624;6.014;2023-05-10T03:08:44;19.58;;;10.10;;
23117;SDS011;11728;50.624;6.014;2023-05-10T03:19:49;18.95;;;9.43;;
23117;SDS011;11728;50.624;6.014;2023-05-10T03:25:15;11.52;;;7.70;;
23117;SDS011;11728;50.624;6.014;2023-05-10T03:30:37;15.25;;;7.30;;
23117;SDS011;11728;50.624;6.014;2023-05-10T03:35:58;11.77;;;6.97;;
23117;SDS011;11728;50.624;6.014;2023-05-10T03:41:19;15.00;;;7.20;;
23117;SDS011;11728;50.624;6.014;2023-05-10T03:46:40;15.98;;;6.60;;
23117;SDS011;11728;50.624;6.014;2023-05-10T03:52:01;12.38;;;6.90;;
23117;SDS011;11728;50.624;6.014;2023-05-10T03:57:22;13.10;;;6.72;;
23117;SDS011;11728;50.624;6.014;2023-05-10T04:02:43;15.07;;;6.40;;
23117;SDS011;11728;50.624;6.014;2023-05-10T04:08:04;14.43;;;6.60;;
23117;SDS011;11728;50.624;6.014;2023-05-10T04:13:25;16.23;;;6.18;;
23117;SDS011;11728;50.624;6.014;2023-05-10T04:18:46;14.10;;;6.80;;
23117;SDS011;11728;50.624;6.014;2023-05-10T04:24:08;17.73;;;6.82;;
23117;SDS011;11728;50.624;6.014;2023-05-10T04:29:29;16.50;;;6.63;;
23117;SDS011;11728;50.624;6.014;2023-05-10T04:34:50;15.32;;;6.43;;
23117;SDS011;11728;50.624;6.014;2023-05-10T04:40:13;15.68;;;7.30;;
23117;SDS011;11728;50.624;6.014;2023-05-10T04:45:34;14.15;;;6.75;;
23117;SDS011;11728;50.624;6.014;2023-05-10T04:50:55;14.77;;;6.40;;
23117;SDS011;11728;50.624;6.014;2023-05-10T04:56:15;14.70;;;5.85;;
23117;SDS011;11728;50.624;6.014;2023-05-10T05:01:37;11.55;;;6.53;;
23117;SDS011;11728;50.624;6.014;2023-05-10T05:06:57;13.35;;;6.00;;
23117;SDS011;11728;50.624;6.014;2023-05-10T05:12:18;12.80;;;6.10;;
23117;SDS011;11728;50.624;6.014;2023-05-10T05:17:39;13.77;;;5.88;;
23117;SDS011;11728;50.624;6.014;2023-05-10T05:23:00;13.20;;;5.70;;
23117;SDS011;11728;50.624;6.014;2023-05-10T05:28:21;11.02;;;5.20;;
23117;SDS011;11728;50.624;6.014;2023-05-10T05:33:41;11.55;;;5.20;;
23117;SDS011;11728;50.624;6.014;2023-05-10T05:39:02;10.43;;;4.65;;
23117;SDS011;11728;50.624;6.014;2023-05-10T05:44:23;7.47;;;3.80;;
23117;SDS011;11728;50.624;6.014;2023-05-10T05:49:44;6.07;;;3.35;;
23117;SDS011;11728;50.624;6.014;2023-05-10T05:55:07;8.90;;;3.65;;
23117;SDS011;11728;50.624;6.014;2023-05-10T06:00:28;5.70;;;3.55;;
23117;SDS011;11728;50.624;6.014;2023-05-10T06:05:49;6.20;;;2.90;;
23117;SDS011;11728;50.624;6.014;2023-05-10T06:11:10;3.47;;;2.20;;
23117;SDS011;11728;50.624;6.014;2023-05-10T06:16:30;4.00;;;1.80;;
23117;SDS011;11728;50.624;6.014;2023-05-10T06:21:52;4.68;;;1.88;;
23117;SDS011;11728;50.624;6.014;2023-05-10T06:27:12;5.18;;;1.88;;
23117;SDS011;11728;50.624;6.014;2023-05-10T06:32:33;4.50;;;1.80;;
23117;SDS011;11728;50.624;6.014;2023-05-10T06:37:54;4.80;;;1.70;;
23117;SDS011;11728;50.624;6.014;2023-05-10T06:43:15;3.78;;;1.98;;
23117;SDS011;11728;50.624;6.014;2023-05-10T06:48:36;3.67;;;2.05;;
23117;SDS011;11728;50.624;6.014;2023-05-10T06:53:56;4.22;;;2.33;;
23117;SDS011;11728;50.624;6.014;2023-05-10T06:59:17;3.13;;;1.90;;
23117;SDS011;11728;50.624;6.014;2023-05-10T07:04:39;3.63;;;1.98;;
23117;SDS011;11728;50.624;6.014;2023-05-10T07:10:00;4.70;;;2.42;;
23117;SDS011;11728;50.624;6.014;2023-05-10T07:15:21;3.33;;;2.00;;
23117;SDS011;11728;50.624;6.014;2023-05-10T07:20:42;2.65;;;1.50;;
23117;SDS011;11728;50.624;6.014;2023-05-10T07:26:03;4.13;;;1.80;;
23117;SDS011;11728;50.624;6.014;2023-05-10T07:31:23;3.53;;;2.38;;
23117;SDS011;11728;50.624;6.014;2023-05-10T07:36:44;3.25;;;1.67;;
23117;SDS011;11728;50.624;6.014;2023-05-10T07:42:05;3.58;;;1.00;;
23117;SDS011;11728;50.624;6.014;2023-05-10T07:47:26;1.67;;;0.90;;
23117;SDS011;11728;50.624;6.014;2023-05-10T07:52:47;3.45;;;1.20;;
23117;SDS011;11728;50.624;6.014;2023-05-10T07:58:08;2.63;;;0.82;;
23117;SDS011;11728;50.624;6.014;2023-05-10T08:03:29;1.48;;;0.85;;
23117;SDS011;11728;50.624;6.014;2023-05-10T08:08:50;2.40;;;0.90;;
23117;SDS011;11728;50.624;6.014;2023-05-10T08:14:10;1.98;;;1.00;;
23117;SDS011;11728;50.624;6.014;2023-05-10T08:19:31;2.60;;;0.90;;
23117;SDS011;11728;50.624;6.014;2023-05-10T08:24:55;1.83;;;0.77;;
23117;SDS011;11728;50.624;6.014;2023-05-10T08:30:16;3.00;;;0.60;;
23117;SDS011;11728;50.624;6.014;2023-05-10T08:35:36;1.15;;;0.60;;
23117;SDS011;11728;50.624;6.014;2023-05-10T08:40:57;1.00;;;0.43;;
23117;SDS011;11728;50.624;6.014;2023-05-10T08:46:19;1.92;;;0.60;;
23117;SDS011;11728;50.624;6.014;2023-05-10T08:51:42;1.00;;;0.50;;
23117;SDS011;11728;50.624;6.014;2023-05-10T08:57:07;1.05;;;0.50;;
23117;SDS011;11728;50.624;6.014;2023-05-10T09:02:28;1.90;;;0.80;;
23117;SDS011;11728;50.624;6.014;2023-05-10T09:07:49;1.40;;;0.80;;
23117;SDS011;11728;50.624;6.014;2023-05-10T09:13:10;2.17;;;0.95;;
23117;SDS011;11728;50.624;6.014;2023-05-10T09:18:32;1.80;;;1.00;;
23117;SDS011;11728;50.624;6.014;2023-05-10T09:23:52;2.50;;;1.05;;
23117;SDS011;11728;50.624;6.014;2023-05-10T09:29:14;2.00;;;1.00;;
23117;SDS011;11728;50.624;6.014;2023-05-10T09:34:35;2.63;;;1.10;;
23117;SDS011;11728;50.624;6.014;2023-05-10T09:40:00;16.80;;;3.72;;
23117;SDS011;11728;50.624;6.014;2023-05-10T09:45:21;3.47;;;1.13;;
23117;SDS011;11728;50.624;6.014;2023-05-10T09:50:43;2.60;;;1.02;;
23117;SDS011;11728;50.624;6.014;2023-05-10T09:56:04;3.88;;;0.80;;
23117;SDS011;11728;50.624;6.014;2023-05-10T10:01:25;2.28;;;1.13;;
23117;SDS011;11728;50.624;6.014;2023-05-10T10:06:46;2.85;;;0.95;;
23117;SDS011;11728;50.624;6.014;2023-05-10T10:12:19;3.63;;;1.52;;
23117;SDS011;11728;50.624;6.014;2023-05-10T10:17:40;3.10;;;1.35;;
23117;SDS011;11728;50.624;6.014;2023-05-10T10:23:03;3.80;;;1.50;;
23117;SDS011;11728;50.624;6.014;2023-05-10T10:28:32;1.75;;;0.75;;
23117;SDS011;11728;50.624;6.014;2023-05-10T10:34:06;2.22;;;1.05;;
23117;SDS011;11728;50.624;6.014;2023-05-10T10:39:30;3.60;;;1.17;;
23117;SDS011;11728;50.624;6.014;2023-05-10T10:44:58;3.08;;;1.40;;
23117;SDS011;11728;50.624;6.014;2023-05-10T10:50:32;1.90;;;1.15;;
23117;SDS011;11728;50.624;6.014;2023-05-10T10:56:10;3.65;;;1.30;;
23117;SDS011;11728;50.624;6.014;2023-05-10T11:01:34;2.72;;;1.30;;
23117;SDS011;11728;50.624;6.014;2023-05-10T11:07:15;4.55;;;1.50;;
23117;SDS011;11728;50.624;6.014;2023-05-10T11:12:45;2.97;;;1.60;;
23117;SDS011;11728;50.624;6.014;2023-05-10T11:18:27;2.88;;;1.50;;
23117;SDS011;11728;50.624;6.014;2023-05-10T11:23:53;2.38;;;1.48;;
23117;SDS011;11728;50.624;6.014;2023-05-10T11:29:16;3.50;;;1.88;;
23117;SDS011;11728;50.624;6.014;2023-05-10T11:34:38;3.22;;;1.95;;
23117;SDS011;11728;50.624;6.014;2023-05-10T11:39:59;4.55;;;2.10;;
23117;SDS011;11728;50.624;6.014;2023-05-10T11:45:19;4.63;;;2.13;;
23117;SDS011;11728;50.624;6.014;2023-05-10T11:50:43;6.80;;;2.33;;
23117;SDS011;11728;50.624;6.014;2023-05-10T11:56:05;5.10;;;2.30;;
23117;SDS011;11728;50.624;6.014;2023-05-10T12:01:27;3.80;;;1.70;;
23117;SDS011;11728;50.624;6.014;2023-05-10T12:06:49;2.40;;;1.50;;
23117;SDS011;11728;50.624;6.014;2023-05-10T12:12:10;2.78;;;1.85;;
23117;SDS011;11728;50.624;6.014;2023-05-10T12:17:37;2.10;;;1.23;;
23117;SDS011;11728;50.624;6.014;2023-05-10T12:22:59;2.00;;;1.33;;
23117;SDS011;11728;50.624;6.014;2023-05-10T12:28:23;4.55;;;1.80;;
23117;SDS011;11728;50.624;6.014;2023-05-10T12:33:44;8.07;;;3.00;;
23117;SDS011;11728;50.624;6.014;2023-05-10T12:39:06;5.85;;;2.67;;
23117;SDS011;11728;50.624;6.014;2023-05-10T12:44:27;3.38;;;2.33;;
23117;SDS011;11728;50.624;6.014;2023-05-10T12:49:48;4.70;;;2.42;;
23117;SDS011;11728;50.624;6.014;2023-05-10T12:55:08;4.45;;;2.30;;
23117;SDS011;11728;50.624;6.014;2023-05-10T13:00:29;5.25;;;2.20;;
23117;SDS011;11728;50.624;6.014;2023-05-10T13:05:51;2.53;;;1.85;;
23117;SDS011;11728;50.624;6.014;2023-05-10T13:11:12;4.10;;;1.67;;
23117;SDS011;11728;50.624;6.014;2023-05-10T13:16:36;3.78;;;1.55;;
23117;SDS011;11728;50.624;6.014;2023-05-10T13:21:57;2.58;;;1.52;;
23117;SDS011;11728;50.624;6.014;2023-05-10T13:27:18;2.30;;;1.20;;
23117;SDS011;11728;50.624;6.014;2023-05-10T13:32:39;2.97;;;1.40;;
23117;SDS011;11728;50.624;6.014;2023-05-10T13:37:59;3.17;;;1.50;;
23117;SDS011;11728;50.624;6.014;2023-05-10T13:43:20;3.95;;;1.35;;
23117;SDS011;11728;50.624;6.014;2023-05-10T13:48:41;3.67;;;1.52;;
23117;SDS011;11728;50.624;6.014;2023-05-10T13:54:02;2.30;;;1.20;;
23117;SDS011;11728;50.624;6.014;2023-05-10T13:59:23;2.03;;;0.82;;
23117;SDS011;11728;50.624;6.014;2023-05-10T14:04:44;1.65;;;1.23;;
23117;SDS011;11728;50.624;6.014;2023-05-10T14:10:05;2.30;;;1.13;;
23117;SDS011;11728;50.624;6.014;2023-05-10T14:15:26;4.55;;;1.30;;
23117;SDS011;11728;50.624;6.014;2023-05-10T14:20:47;2.10;;;1.00;;
23117;SDS011;11728;50.624;6.014;2023-05-10T14:26:07;4.53;;;1.20;;
23117;SDS011;11728;50.624;6.014;2023-05-10T14:31:28;1.85;;;0.98;;
23117;SDS011;11728;50.624;6.014;2023-05-10T14:36:50;2.47;;;1.10;;
23117;SDS011;11728;50.624;6.014;2023-05-10T14:42:11;1.52;;;0.90;;
23117;SDS011;11728;50.624;6.014;2023-05-10T14:47:32;2.85;;;0.90;;
23117;SDS011;11728;50.624;6.014;2023-05-10T14:52:53;1.73;;;0.73;;
23117;SDS011;11728;50.624;6.014;2023-05-10T14:58:13;1.15;;;0.63;;
23117;SDS011;11728;50.624;6.014;2023-05-10T15:03:34;1.65;;;0.68;;
23117;SDS011;11728;50.624;6.014;2023-05-10T15:08:55;3.38;;;0.80;;
23117;SDS011;11728;50.624;6.014;2023-05-10T15:14:16;1.65;;;0.73;;
23117;SDS011;11728;50.624;6.014;2023-05-10T15:19:36;1.52;;;0.60;;
23117;SDS011;11728;50.624;6.014;2023-05-10T15:24:58;2.60;;;0.50;;
23117;SDS011;11728;50.624;6.014;2023-05-10T15:30:19;1.33;;;0.45;;
23117;SDS011;11728;50.624;6.014;2023-05-10T15:35:40;1.55;;;0.60;;
23117;SDS011;11728;50.624;6.014;2023-05-10T15:41:01;2.13;;;0.50;;
23117;SDS011;11728;50.624;6.014;2023-05-10T15:46:22;2.20;;;0.63;;
23117;SDS011;11728;50.624;6.014;2023-05-10T15:51:42;2.55;;;0.60;;
23117;SDS011;11728;50.624;6.014;2023-05-10T15:57:03;3.50;;;0.63;;
23117;SDS011;11728;50.624;6.014;2023-05-10T16:02:26;1.45;;;0.47;;
23117;SDS011;11728;50.624;6.014;2023-05-10T16:07:47;3.70;;;1.58;;
23117;SDS011;11728;50.624;6.014;2023-05-10T16:13:08;3.97;;;1.48;;
23117;SDS011;11728;50.624;6.014;2023-05-10T16:18:29;2.08;;;0.70;;
23117;SDS011;11728;50.624;6.014;2023-05-10T16:23:50;2.25;;;0.60;;
23117;SDS011;11728;50.624;6.014;2023-05-10T16:29:10;1.48;;;0.70;;
23117;SDS011;11728;50.624;6.014;2023-05-10T16:34:31;3.95;;;0.85;;
23117;SDS011;11728;50.624;6.014;2023-05-10T16:39:52;1.48;;;0.90;;
23117;SDS011;11728;50.624;6.014;2023-05-10T16:45:13;2.85;;;1.40;;
23117;SDS011;11728;50.624;6.014;2023-05-10T16:50:33;3.10;;;1.42;;
23117;SDS011;11728;50.624;6.014;2023-05-10T16:55:54;3.42;;;1.48;;
23117;SDS011;11728;50.624;6.014;2023-05-10T17:01:15;4.88;;;2.40;;
23117;SDS011;11728;50.624;6.014;2023-05-10T17:06:36;5.55;;;2.17;;
23117;SDS011;11728;50.624;6.014;2023-05-10T17:11:57;3.25;;;2.20;;
23117;SDS011;11728;50.624;6.014;2023-05-10T17:17:18;3.40;;;2.58;;
23117;SDS011;11728;50.624;6.014;2023-05-10T17:22:40;4.38;;;2.50;;
23117;SDS011;11728;50.624;6.014;2023-05-10T17:28:01;2.83;;;1.70;;
23117;SDS011;11728;50.624;6.014;2023-05-10T17:33:22;3.83;;;1.60;;
23117;SDS011;11728;50.624;6.014;2023-05-10T17:38:43;1.88;;;1.40;;
23117;SDS011;11728;50.624;6.014;2023-05-10T17:44:11;2.78;;;1.60;;
23117;SDS011;11728;50.624;6.014;2023-05-10T17:49:59;3.45;;;1.70;;
23117;SDS011;11728;50.624;6.014;2023-05-10T17:55:20;2.17;;;1.20;;
23117;SDS011;11728;50.624;6.014;2023-05-10T18:00:41;3.42;;;1.50;;
23117;SDS011;11728;50.624;6.014;2023-05-10T18:06:02;2.63;;;1.30;;
23117;SDS011;11728;50.624;6.014;2023-05-10T18:11:23;2.65;;;1.30;;
23117;SDS011;11728;50.624;6.014;2023-05-10T18:16:44;3.50;;;1.00;;
23117;SDS011;11728;50.624;6.014;2023-05-10T18:22:05;1.85;;;0.90;;
23117;SDS011;11728;50.624;6.014;2023-05-10T18:27:25;2.60;;;1.10;;
23117;SDS011;11728;50.624;6.014;2023-05-10T18:32:46;2.33;;;1.30;;
23117;SDS011;11728;50.624;6.014;2023-05-10T18:38:07;5.07;;;2.13;;
23117;SDS011;11728;50.624;6.014;2023-05-10T18:43:29;4.35;;;2.13;;
23117;SDS011;11728;50.624;6.014;2023-05-10T18:48:49;3.17;;;1.70;;
23117;SDS011;11728;50.624;6.014;2023-05-10T18:54:11;4.43;;;1.67;;
23117;SDS011;11728;50.624;6.014;2023-05-10T18:59:32;4.22;;;1.80;;
23117;SDS011;11728;50.624;6.014;2023-05-10T19:04:53;2.83;;;1.70;;
23117;SDS011;11728;50.624;6.014;2023-05-10T19:10:13;4.20;;;2.25;;
23117;SDS011;11728;50.624;6.014;2023-05-10T19:15:34;3.28;;;2.08;;
23117;SDS011;11728;50.624;6.014;2023-05-10T19:20:55;3.33;;;1.88;;
23117;SDS011;11728;50.624;6.014;2023-05-10T19:26:16;3.03;;;1.90;;
23117;SDS011;11728;50.624;6.014;2023-05-10T19:31:37;2.88;;;1.80;;
23117;SDS011;11728;50.624;6.014;2023-05-10T19:36:59;4.35;;;2.05;;
23117;SDS011;11728;50.624;6.014;2023-05-10T19:42:20;4.22;;;1.85;;
23117;SDS011;11728;50.624;6.014;2023-05-10T19:47:42;3.72;;;1.33;;
23117;SDS011;11728;50.624;6.014;2023-05-10T19:53:02;5.68;;;1.98;;
23117;SDS011;11728;50.624;6.014;2023-05-10T19:58:23;5.50;;;1.90;;
23117;SDS011;11728;50.624;6.014;2023-05-10T20:03:44;7.13;;;2.33;;
23117;SDS011;11728;50.624;6.014;2023-05-10T20:09:05;5.13;;;2.63;;
23117;SDS011;11728;50.624;6.014;2023-05-10T20:14:25;5.32;;;3.50;;
23117;SDS011;11728;50.624;6.014;2023-05-10T20:19:46;5.72;;;3.45;;
23117;SDS011;11728;50.624;6.014;2023-05-10T20:25:07;6.55;;;3.35;;
23117;SDS011;11728;50.624;6.014;2023-05-10T20:30:28;7.85;;;4.38;;
23117;SDS011;11728;50.624;6.014;2023-05-10T20:35:49;7.70;;;4.35;;
23117;SDS011;11728;50.624;6.014;2023-05-10T20:41:10;8.20;;;4.78;;
23117;SDS011;11728;50.624;6.014;2023-05-10T20:46:31;7.57;;;4.40;;
23117;SDS011;11728;50.624;6.014;2023-05-10T20:51:53;8.25;;;4.75;;
23117;SDS011;11728;50.624;6.014;2023-05-10T20:57:14;11.35;;;5.85;;
23117;SDS011;11728;50.624;6.014;2023-05-10T21:02:34;11.32;;;5.63;;
23117;SDS011;11728;50.624;6.014;2023-05-10T21:07:55;12.93;;;6.75;;
23117;SDS011;11728;50.624;6.014;2023-05-10T21:13:16;11.25;;;6.47;;
23117;SDS011;11728;50.624;6.014;2023-05-10T21:18:37;9.68;;;5.75;;
23117;SDS011;11728;50.624;6.014;2023-05-10T21:23:57;11.68;;;6.57;;
23117;SDS011;11728;50.624;6.014;2023-05-10T21:29:18;13.80;;;6.57;;
23117;SDS011;11728;50.624;6.014;2023-05-10T21:34:39;12.50;;;7.07;;
23117;SDS011;11728;50.624;6.014;2023-05-10T21:40:00;12.77;;;7.32;;
23117;SDS011;11728;50.624;6.014;2023-05-10T21:45:20;9.20;;;6.20;;
23117;SDS011;11728;50.624;6.014;2023-05-10T21:50:41;8.75;;;5.53;;
23117;SDS011;11728;50.624;6.014;2023-05-10T21:56:03;11.57;;;6.07;;
23117;SDS011;11728;50.624;6.014;2023-05-10T22:01:25;8.60;;;5.80;;
23117;SDS011;11728;50.624;6.014;2023-05-10T22:06:45;8.63;;;5.70;;
23117;SDS011;11728;50.624;6.014;2023-05-10T22:12:07;10.18;;;5.55;;
23117;SDS011;11728;50.624;6.014;2023-05-10T22:17:28;12.55;;;6.47;;
23117;SDS011;11728;50.624;6.014;2023-05-10T22:22:48;13.85;;;5.95;;
23117;SDS011;11728;50.624;6.014;2023-05-10T22:28:09;10.15;;;5.60;;
23117;SDS011;11728;50.624;6.014;2023-05-10T22:33:30;11.20;;;5.13;;
23117;SDS011;11728;50.624;6.014;2023-05-10T22:38:51;10.75;;;5.50;;
23117;SDS011;11728;50.624;6.014;2023-05-10T22:44:11;8.82;;;4.05;;
23117;SDS011;11728;50.624;6.014;2023-05-10T22:49:32;6.85;;;3.03;;
23117;SDS011;11728;50.624;6.014;2023-05-10T22:54:53;5.53;;;3.20;;
23117;SDS011;11728;50.624;6.014;2023-05-10T23:00:14;5.95;;;3.00;;
23117;SDS011;11728;50.624;6.014;2023-05-10T23:05:35;7.57;;;3.53;;
23117;SDS011;11728;50.624;6.014;2023-05-10T23:10:56;7.10;;;2.55;;
23117;SDS011;11728;50.624;6.014;2023-05-10T23:16:16;4.72;;;2.60;;
23117;SDS011;11728;50.624;6.014;2023-05-10T23:21:37;4.68;;;2.20;;
23117;SDS011;11728;50.624;6.014;2023-05-10T23:26:58;8.90;;;3.15;;
23117;SDS011;11728;50.624;6.014;2023-05-10T23:32:19;5.75;;;3.42;;
23117;SDS011;11728;50.624;6.014;2023-05-10T23:37:40;6.22;;;3.97;;
23117;SDS011;11728;50.624;6.014;2023-05-10T23:43:01;8.35;;;4.65;;
23117;SDS011;11728;50.624;6.014;2023-05-10T23:48:22;8.30;;;3.95;;
23117;SDS011;11728;50.624;6.014;2023-05-10T23:53:43;9.35;;;4.03;;
23117;SDS011;11728;50.624;6.014;2023-05-10T23:59:04;4.85;;;3.45;;
